createdAt,value
2019-02-17T00:00:31.937Z,56.27
2019-02-17T00:03:05.487Z,57.93
2019-02-17T00:05:39.020Z,56.07
2019-02-17T00:08:12.493Z,48.20
2019-02-17T00:10:46.007Z,47.87
2019-02-17T00:13:21.129Z,46.97
2019-02-17T00:15:54.621Z,50.50
2019-02-17T00:18:28.131Z,46.17
2019-02-17T00:21:01.603Z,44.77
2019-02-17T00:23:39.925Z,46.87
2019-02-17T00:26:15.491Z,50.03
2019-02-17T00:28:58.913Z,47.03
2019-02-17T00:31:26.009Z,46.77
2019-02-17T00:33:59.737Z,48.27
2019-02-17T00:36:33.286Z,45.33
2019-02-17T00:39:08.506Z,44.80
2019-02-17T00:41:45.945Z,45.30
2019-02-17T00:44:21.341Z,45.47
2019-02-17T00:46:59.075Z,49.17
2019-02-17T00:49:32.632Z,49.67
2019-02-17T00:52:09.212Z,46.87
2019-02-17T00:57:46.039Z,51.73
2019-02-17T01:00:19.624Z,48.47
2019-02-17T01:02:54.624Z,50.30
2019-02-17T01:05:34.323Z,52.67
2019-02-17T01:08:03.658Z,47.57
2019-02-17T01:10:41.533Z,47.63
2019-02-17T01:13:16.705Z,54.07
2019-02-17T01:18:33.820Z,55.57
2019-02-17T01:21:09.904Z,52.87
2019-02-17T01:23:43.476Z,52.23
2019-02-17T01:26:20.015Z,56.27
2019-02-17T01:28:56.472Z,58.27
2019-02-17T01:31:35.571Z,50.20
2019-02-17T01:34:11.441Z,49.70
2019-02-17T01:36:45.184Z,54.10
2019-02-17T01:39:23.121Z,57.53
2019-02-17T01:41:58.247Z,50.57
2019-02-17T01:44:31.738Z,47.90
2019-02-17T01:47:06.900Z,50.13
2019-02-17T01:49:40.432Z,48.50
2019-02-17T01:52:15.546Z,47.10
2019-02-17T01:54:49.136Z,48.33
2019-02-17T01:57:22.692Z,48.07
2019-02-17T01:59:57.925Z,47.77
2019-02-17T02:02:31.469Z,48.97
2019-02-17T02:05:13.888Z,48.37
2019-02-17T02:07:47.412Z,49.90
2019-02-17T02:10:20.999Z,50.10
2019-02-17T02:12:56.517Z,54.87
2019-02-17T02:15:30.023Z,55.97
2019-02-17T02:18:03.484Z,58.00
2019-02-17T02:20:37.672Z,58.60
2019-02-17T02:23:11.113Z,48.63
2019-02-17T02:25:44.600Z,52.13
2019-02-17T02:28:19.678Z,49.23
2019-02-17T02:30:53.175Z,45.33
2019-02-17T02:33:26.730Z,51.37
2019-02-17T02:36:01.918Z,44.23
2019-02-17T02:38:35.364Z,50.13
2019-02-17T02:41:08.976Z,50.70
2019-02-17T02:43:42.410Z,42.80
2019-02-17T02:46:18.891Z,42.73
2019-02-17T02:48:52.397Z,45.80
2019-02-17T02:51:25.845Z,46.70
2019-02-17T02:54:04.733Z,48.00
2019-02-17T02:56:39.809Z,49.03
2019-02-17T02:59:14.995Z,47.87
2019-02-17T03:01:52.032Z,46.60
2019-02-17T03:04:45.022Z,48.80
2019-02-17T03:07:39.443Z,47.60
2019-02-17T03:10:17.461Z,47.33
2019-02-17T03:12:53.659Z,51.27
2019-02-17T03:15:28.966Z,50.23
2019-02-17T03:18:05.164Z,49.10
2019-02-17T03:20:40.981Z,51.63
2019-02-17T03:23:16.296Z,46.80
2019-02-17T03:25:49.689Z,46.60
2019-02-17T03:28:23.261Z,47.23
2019-02-17T03:31:01.016Z,52.23
2019-02-17T03:33:39.045Z,49.70
2019-02-17T03:36:12.487Z,48.17
2019-02-17T03:38:45.963Z,44.83
2019-02-17T03:41:21.090Z,46.00
2019-02-17T03:43:54.551Z,44.57
2019-02-17T03:46:31.223Z,44.17
2019-02-17T03:49:07.629Z,42.60
2019-02-17T03:51:41.174Z,41.43
2019-02-17T03:54:16.878Z,44.87
2019-02-17T03:56:50.426Z,41.00
2019-02-17T03:59:23.919Z,38.97
2019-02-17T04:01:57.407Z,37.23
2019-02-17T04:04:32.457Z,41.07
2019-02-17T04:07:05.904Z,41.47
2019-02-17T04:09:39.396Z,44.83
2019-02-17T04:12:15.910Z,43.60
2019-02-17T04:14:49.390Z,44.57
2019-02-17T04:17:25.908Z,44.03
2019-02-17T04:19:59.431Z,43.40
2019-02-17T04:22:32.937Z,43.53
2019-02-17T04:25:06.417Z,42.47
2019-02-17T04:27:39.885Z,43.83
2019-02-17T04:30:13.375Z,47.63
2019-02-17T04:32:46.952Z,43.80
2019-02-17T04:35:20.442Z,44.00
2019-02-17T04:37:53.905Z,44.23
2019-02-17T04:40:27.501Z,42.80
2019-02-17T04:43:01.068Z,46.23
2019-02-17T04:45:34.653Z,49.77
2019-02-17T04:48:08.266Z,48.73
2019-02-17T04:50:43.571Z,47.47
2019-02-17T04:53:19.860Z,49.07
2019-02-17T04:55:53.368Z,50.10
2019-02-17T04:58:29.804Z,46.10
2019-02-17T05:01:03.328Z,45.07
2019-02-17T05:03:36.824Z,43.83
2019-02-17T05:06:11.921Z,47.00
2019-02-17T05:08:45.371Z,45.77
2019-02-17T05:11:18.929Z,45.00
2019-02-17T05:13:52.381Z,47.47
2019-02-17T05:16:25.894Z,45.60
2019-02-17T05:19:04.223Z,49.77
2019-02-17T05:21:37.732Z,49.77
2019-02-17T05:24:11.260Z,46.07
2019-02-17T05:26:47.055Z,53.10
2019-02-17T05:29:20.492Z,46.20
2019-02-17T05:31:54.030Z,46.50
2019-02-17T05:34:27.452Z,49.43
2019-02-17T05:37:04.018Z,46.20
2019-02-17T05:39:37.577Z,44.23
2019-02-17T05:42:13.939Z,44.47
2019-02-17T05:44:47.457Z,49.83
2019-02-17T05:47:23.742Z,46.00
2019-02-17T05:49:59.690Z,47.57
2019-02-17T05:52:33.193Z,43.53
2019-02-17T05:55:07.128Z,42.43
2019-02-17T05:57:43.187Z,44.03
2019-02-17T06:00:19.883Z,45.23
2019-02-17T06:02:53.341Z,44.53
2019-02-17T06:05:26.832Z,49.03
2019-02-17T06:08:01.972Z,46.00
2019-02-17T06:10:35.457Z,49.53
2019-02-17T06:13:08.905Z,45.10
2019-02-17T06:15:42.395Z,46.33
2019-02-17T06:18:15.821Z,49.67
2019-02-17T06:20:49.273Z,45.83
2019-02-17T06:23:22.700Z,47.53
2019-02-17T06:25:56.178Z,45.13
2019-02-17T06:28:29.639Z,50.40
2019-02-17T06:31:13.732Z,44.63
2019-02-17T06:33:38.180Z,42.77
2019-02-17T06:36:11.697Z,44.80
2019-02-17T06:38:45.145Z,49.53
2019-02-17T06:41:18.594Z,51.33
2019-02-17T06:43:52.077Z,51.90
2019-02-17T06:46:27.235Z,52.73
2019-02-17T06:49:00.692Z,54.27
2019-02-17T06:51:34.160Z,57.27
2019-02-17T06:54:07.596Z,53.50
2019-02-17T06:56:42.704Z,55.60
2019-02-17T06:59:16.191Z,56.20
2019-02-17T07:01:49.716Z,53.30
2019-02-17T07:04:24.803Z,53.87
2019-02-17T07:06:59.929Z,59.43
2019-02-17T07:09:33.454Z,60.10
2019-02-17T07:12:06.929Z,57.67
2019-02-17T07:14:40.909Z,60.20
2019-02-17T07:17:14.978Z,60.93
2019-02-17T07:19:48.448Z,55.23
2019-02-17T07:22:21.973Z,53.63
2019-02-17T07:24:55.405Z,52.20
2019-02-17T07:27:28.904Z,53.73
2019-02-17T07:30:02.356Z,51.77
2019-02-17T07:32:40.356Z,53.33
2019-02-17T07:35:13.907Z,54.77
2019-02-17T07:37:48.018Z,52.87
2019-02-17T07:40:21.488Z,53.93
2019-02-17T07:42:54.918Z,52.60
2019-02-17T07:45:28.467Z,51.07
2019-02-17T07:48:01.945Z,49.23
2019-02-17T07:50:35.423Z,49.43
2019-02-17T07:53:09.114Z,46.93
2019-02-17T07:55:43.141Z,45.40
2019-02-17T07:58:17.619Z,46.10
2019-02-17T08:00:52.016Z,46.70
2019-02-17T08:03:27.285Z,49.37
2019-02-17T08:06:00.757Z,50.87
2019-02-17T08:08:34.232Z,47.03
2019-02-17T08:11:07.668Z,44.43
2019-02-17T08:13:41.640Z,45.57
2019-02-17T08:16:15.133Z,45.23
2019-02-17T08:18:48.742Z,47.77
2019-02-17T08:21:22.216Z,47.60
2019-02-17T08:23:56.613Z,53.57
2019-02-17T08:26:30.135Z,54.73
2019-02-17T08:29:04.290Z,56.97
2019-02-17T08:31:37.783Z,61.47
2019-02-17T08:34:11.222Z,53.37
2019-02-17T08:36:44.704Z,56.63
2019-02-17T08:39:18.158Z,58.70
2019-02-17T08:41:51.616Z,57.53
2019-02-17T08:44:25.110Z,52.03
2019-02-17T08:47:00.200Z,51.50
2019-02-17T08:49:33.656Z,49.50
2019-02-17T08:52:07.085Z,52.17
2019-02-17T08:54:40.562Z,56.70
2019-02-17T08:57:13.998Z,55.60
2019-02-17T08:59:47.478Z,52.97
2019-02-17T09:02:20.949Z,53.83
2019-02-17T09:04:54.636Z,53.07
2019-02-17T09:07:28.086Z,54.87
2019-02-17T09:10:01.605Z,49.43
2019-02-17T09:12:35.048Z,51.63
2019-02-17T09:15:12.788Z,46.10
2019-02-17T09:17:46.268Z,41.97
2019-02-17T09:20:19.747Z,46.17
2019-02-17T09:22:59.012Z,50.17
2019-02-17T09:25:32.447Z,50.47
2019-02-17T09:28:05.945Z,52.43
2019-02-17T09:30:39.414Z,51.07
2019-02-17T09:33:13.006Z,50.50
2019-02-17T09:35:46.471Z,48.73
2019-02-17T09:38:20.025Z,47.10
2019-02-17T09:40:53.441Z,51.33
2019-02-17T09:43:26.924Z,44.53
2019-02-17T09:46:00.400Z,49.93
2019-02-17T09:48:35.550Z,34.03
2019-02-17T09:51:09.001Z,46.50
2019-02-17T09:53:42.446Z,47.23
2019-02-17T09:56:15.946Z,28.17
2019-02-17T09:58:49.582Z,26.73
2019-02-17T10:01:23.066Z,23.63
2019-02-17T10:03:56.519Z,23.30
2019-02-17T10:06:29.992Z,24.60
2019-02-17T10:09:04.898Z,22.80
2019-02-17T10:11:40.892Z,24.87
2019-02-17T10:14:14.415Z,24.00
2019-02-17T10:16:47.883Z,24.50
2019-02-17T10:19:21.427Z,25.17
2019-02-17T10:21:54.978Z,24.40
2019-02-17T10:24:28.480Z,24.37
2019-02-17T10:27:01.927Z,23.60
2019-02-17T10:29:35.412Z,23.73
2019-02-17T10:32:08.929Z,23.83
2019-02-17T10:34:42.439Z,21.77
2019-02-17T10:37:15.928Z,22.30
2019-02-17T10:39:49.429Z,22.07
2019-02-17T10:42:22.889Z,22.73
2019-02-17T10:44:56.379Z,20.53
2019-02-17T10:47:29.835Z,20.10
2019-02-17T10:50:03.587Z,19.77
2019-02-17T10:52:37.049Z,20.20
2019-02-17T10:55:12.073Z,19.50
2019-02-17T10:57:45.591Z,20.30
2019-02-17T11:00:21.951Z,20.00
2019-02-17T11:02:55.393Z,19.97
2019-02-17T11:05:28.974Z,20.47
2019-02-17T11:08:02.410Z,20.37
2019-02-17T11:10:35.935Z,20.07
2019-02-17T11:13:09.759Z,20.70
2019-02-17T11:15:43.221Z,19.40
2019-02-17T11:18:16.728Z,19.77
2019-02-17T11:20:50.165Z,17.37
2019-02-17T11:23:23.645Z,16.23
2019-02-17T11:25:57.123Z,19.27
2019-02-17T11:28:30.570Z,19.90
2019-02-17T11:31:05.641Z,19.87
2019-02-17T11:33:39.501Z,21.83
2019-02-17T11:36:13.358Z,18.47
2019-02-17T11:38:47.091Z,21.70
2019-02-17T11:41:20.789Z,20.50
2019-02-17T11:43:54.445Z,21.77
2019-02-17T11:46:28.671Z,19.97
2019-02-17T11:49:02.322Z,19.27
2019-02-17T11:51:36.880Z,19.40
2019-02-17T11:54:10.641Z,21.97
2019-02-17T11:56:44.107Z,18.57
2019-02-17T11:59:17.545Z,19.03
2019-02-17T12:01:51.195Z,20.23
2019-02-17T12:04:24.941Z,20.37
2019-02-17T12:07:00.299Z,20.47
2019-02-17T12:09:33.595Z,20.23
2019-02-17T12:12:07.033Z,19.73
2019-02-17T12:14:40.663Z,18.43
2019-02-17T12:17:14.186Z,20.53
2019-02-17T12:19:47.645Z,21.67
2019-02-17T12:22:22.984Z,20.67
2019-02-17T12:24:58.299Z,20.53
2019-02-17T12:27:36.357Z,21.30
2019-02-17T12:30:10.700Z,19.57
2019-02-17T12:32:44.151Z,23.30
2019-02-17T12:35:17.670Z,23.23
2019-02-17T12:37:51.135Z,22.43
2019-02-17T12:40:24.571Z,20.67
2019-02-17T12:42:58.237Z,21.37
2019-02-17T12:45:31.950Z,21.10
2019-02-17T12:48:05.474Z,22.27
2019-02-17T12:50:39.355Z,19.47
2019-02-17T12:53:13.122Z,17.30
2019-02-17T12:55:47.007Z,17.70
2019-02-17T12:58:29.620Z,20.97
2019-02-17T13:00:56.249Z,17.77
2019-02-17T13:03:30.089Z,20.83
2019-02-17T13:06:05.513Z,21.97
2019-02-17T13:08:39.455Z,17.27
2019-02-17T13:11:14.271Z,17.60
2019-02-17T13:13:50.225Z,18.30
2019-02-17T13:16:24.494Z,20.17
2019-02-17T13:18:58.326Z,17.53
2019-02-17T13:21:32.751Z,20.93
2019-02-17T13:24:06.550Z,19.70
2019-02-17T13:26:40.280Z,22.03
2019-02-17T13:29:14.125Z,20.50
2019-02-17T13:31:48.016Z,18.60
2019-02-17T13:34:21.831Z,20.50
2019-02-17T13:36:55.505Z,19.90
2019-02-17T13:39:29.977Z,19.00
2019-02-17T13:42:03.431Z,17.23
2019-02-17T13:44:36.982Z,16.40
2019-02-17T13:47:10.394Z,17.43
2019-02-17T13:49:43.931Z,19.13
2019-02-17T13:52:17.430Z,17.00
2019-02-17T13:54:51.154Z,18.03
2019-02-17T13:57:24.996Z,18.90
2019-02-17T13:59:58.726Z,17.43
2019-02-17T14:02:32.440Z,17.60
2019-02-17T14:05:07.101Z,16.70
2019-02-17T14:07:40.766Z,16.53
2019-02-17T14:10:14.721Z,15.27
2019-02-17T14:12:48.198Z,14.73
2019-02-17T14:15:22.219Z,15.53
2019-02-17T14:18:13.907Z,14.53
2019-02-17T14:20:48.177Z,15.83
2019-02-17T14:23:21.859Z,14.77
2019-02-17T14:25:55.515Z,15.17
2019-02-17T14:28:30.645Z,15.57
2019-02-17T14:31:04.114Z,13.73
2019-02-17T14:33:37.637Z,14.37
2019-02-17T14:36:11.176Z,14.40
2019-02-17T14:38:45.027Z,14.60
2019-02-17T14:41:18.733Z,14.80
2019-02-17T14:43:52.388Z,15.07
2019-02-17T14:46:26.094Z,14.97
2019-02-17T14:48:59.767Z,13.77
2019-02-17T14:51:33.535Z,13.93
2019-02-17T14:54:07.178Z,13.87
2019-02-17T14:56:40.756Z,14.33
2019-02-17T14:59:15.638Z,13.20
2019-02-17T15:01:49.117Z,14.37
2019-02-17T15:04:22.982Z,14.03
2019-02-17T15:06:56.662Z,13.80
2019-02-17T15:09:32.100Z,14.80
2019-02-17T15:12:05.899Z,14.80
2019-02-17T15:14:40.033Z,14.40
2019-02-17T15:17:14.837Z,13.33
2019-02-17T15:19:48.686Z,14.13
2019-02-17T15:22:22.418Z,14.03
2019-02-17T15:24:58.752Z,14.33
2019-02-17T15:27:32.500Z,14.17
2019-02-17T15:30:13.429Z,14.33
2019-02-17T15:32:47.145Z,14.27
2019-02-17T15:35:23.405Z,14.37
2019-02-17T15:37:58.000Z,14.67
2019-02-17T15:40:32.094Z,13.77
2019-02-17T15:43:05.941Z,13.97
2019-02-17T15:45:40.899Z,13.73
2019-02-17T15:48:14.741Z,13.93
2019-02-17T15:50:50.099Z,13.90
2019-02-17T15:53:27.064Z,13.10
2019-02-17T15:56:00.927Z,14.40
2019-02-17T15:58:34.748Z,14.23
2019-02-17T16:01:19.139Z,15.23
2019-02-17T16:03:52.948Z,15.13
2019-02-17T16:06:28.471Z,15.20
2019-02-17T16:09:04.396Z,14.50
2019-02-17T16:11:40.687Z,15.20
2019-02-17T16:14:15.993Z,16.60
2019-02-17T16:16:50.018Z,17.10
2019-02-17T16:19:26.492Z,16.17
2019-02-17T16:22:01.323Z,16.50
2019-02-17T16:24:35.089Z,16.37
2019-02-17T16:27:10.091Z,16.47
2019-02-17T16:29:45.443Z,19.43
2019-02-17T16:32:19.189Z,19.33
2019-02-17T16:34:54.735Z,19.93
2019-02-17T16:37:28.184Z,20.87
2019-02-17T16:40:03.035Z,22.30
2019-02-17T16:42:36.617Z,28.60
2019-02-17T16:45:14.795Z,29.30
2019-02-17T16:47:48.366Z,32.10
2019-02-17T16:50:23.356Z,29.73
2019-02-17T16:52:56.861Z,32.07
2019-02-17T16:55:30.454Z,35.67
2019-02-17T16:58:03.957Z,31.93
2019-02-17T17:00:37.515Z,33.30
2019-02-17T17:03:11.179Z,34.17
2019-02-17T17:05:44.707Z,36.53
2019-02-17T17:08:18.190Z,33.90
2019-02-17T17:10:52.806Z,34.60
2019-02-17T17:13:26.229Z,37.13
2019-02-17T17:16:02.522Z,36.17
2019-02-17T17:18:35.979Z,37.90
2019-02-17T17:21:09.476Z,44.23
2019-02-17T17:23:42.968Z,40.50
2019-02-17T17:26:18.486Z,40.40
2019-02-17T17:28:52.062Z,40.03
2019-02-17T17:31:25.531Z,42.23
2019-02-17T17:33:59.004Z,45.13
2019-02-17T17:36:32.483Z,45.23
2019-02-17T17:39:06.154Z,44.13
2019-02-17T17:41:39.665Z,41.73
2019-02-17T17:44:13.140Z,40.90
2019-02-17T17:46:46.593Z,41.47
2019-02-17T17:49:21.590Z,41.27
2019-02-17T17:51:55.212Z,40.13
2019-02-17T17:54:28.751Z,42.63
2019-02-17T17:57:02.388Z,44.30
2019-02-17T17:59:35.930Z,43.27
2019-02-17T18:02:09.571Z,42.53
2019-02-17T18:04:43.505Z,42.23
2019-02-17T18:07:16.923Z,44.63
2019-02-17T18:09:50.485Z,44.53
2019-02-17T18:12:24.926Z,42.90
2019-02-17T18:14:58.419Z,48.03
2019-02-17T18:17:31.849Z,47.63
2019-02-17T18:20:08.531Z,48.90
2019-02-17T18:22:42.023Z,50.20
2019-02-17T18:25:15.582Z,47.60
2019-02-17T18:27:49.047Z,50.40
2019-02-17T18:30:22.536Z,52.43
2019-02-17T18:32:56.393Z,56.60
2019-02-17T18:35:30.731Z,58.07
2019-02-17T18:38:04.213Z,52.37
2019-02-17T18:40:44.696Z,54.83
2019-02-17T18:43:12.868Z,52.37
2019-02-17T18:45:46.320Z,53.93
2019-02-17T18:48:19.910Z,49.70
2019-02-17T18:50:59.126Z,55.03
2019-02-17T18:53:28.486Z,60.17
2019-02-17T18:56:01.945Z,54.97
2019-02-17T18:58:41.164Z,50.63
2019-02-17T19:01:16.263Z,55.60
2019-02-17T19:03:49.736Z,62.40
2019-02-17T19:06:24.676Z,61.40
2019-02-17T19:08:58.206Z,56.20
2019-02-17T19:11:31.713Z,56.07
2019-02-17T19:14:05.156Z,54.37
2019-02-17T19:16:42.079Z,57.40
2019-02-17T19:19:15.792Z,57.20
2019-02-17T19:21:49.332Z,68.00
2019-02-17T19:24:22.802Z,65.20
2019-02-17T19:26:56.266Z,63.63
2019-02-17T19:29:29.718Z,59.10
2019-02-17T19:32:03.228Z,60.63
2019-02-17T19:34:36.677Z,56.83
2019-02-17T19:37:10.156Z,53.77
2019-02-17T19:39:43.616Z,49.60
2019-02-17T19:42:17.850Z,41.80
2019-02-17T19:44:52.328Z,41.57
2019-02-17T19:47:25.775Z,40.40
2019-02-17T19:49:59.602Z,38.17
2019-02-17T19:52:33.100Z,39.17
2019-02-17T19:55:08.112Z,41.27
2019-02-17T19:57:42.693Z,41.40
2019-02-17T20:00:21.187Z,38.87
2019-02-17T20:03:02.768Z,39.60
2019-02-17T20:05:51.751Z,39.63
2019-02-17T20:08:19.101Z,41.70
2019-02-17T20:10:52.561Z,45.37
2019-02-17T20:13:26.032Z,45.87
2019-02-17T20:16:03.079Z,44.43
2019-02-17T20:18:37.123Z,41.13
2019-02-17T20:21:10.575Z,42.87
2019-02-17T20:23:45.674Z,41.33
2019-02-17T20:26:19.129Z,41.93
2019-02-17T20:28:57.294Z,42.33
2019-02-17T20:31:27.977Z,38.80
2019-02-17T20:34:01.416Z,37.83
2019-02-17T20:36:34.918Z,41.60
2019-02-17T20:39:08.677Z,47.20
2019-02-17T20:41:43.556Z,45.27
2019-02-17T20:44:17.049Z,43.47
2019-02-17T20:46:50.480Z,41.50
2019-02-17T20:49:25.097Z,41.20
2019-02-17T20:51:58.844Z,40.97
2019-02-17T20:54:32.278Z,37.97
2019-02-17T20:57:05.821Z,36.40
2019-02-17T20:59:39.289Z,36.80
2019-02-17T21:02:12.774Z,35.30
2019-02-17T21:04:49.124Z,38.67
2019-02-17T21:07:22.616Z,42.43
2019-02-17T21:09:56.495Z,42.47
2019-02-17T21:12:29.905Z,40.10
2019-02-17T21:15:03.391Z,38.70
2019-02-17T21:17:39.907Z,40.20
2019-02-17T21:20:13.828Z,39.03
2019-02-17T21:22:47.321Z,36.37
2019-02-17T21:25:20.757Z,36.13
2019-02-17T21:27:54.239Z,35.07
2019-02-17T21:30:27.675Z,33.03
2019-02-17T21:33:01.161Z,33.03
2019-02-17T21:35:35.784Z,33.47
2019-02-17T21:38:09.264Z,34.90
2019-02-17T21:40:43.868Z,35.53
2019-02-17T21:43:17.307Z,36.67
2019-02-17T21:45:50.814Z,38.20
2019-02-17T21:48:24.241Z,40.07
2019-02-17T21:50:58.997Z,38.10
2019-02-17T21:53:32.408Z,38.30
2019-02-17T21:56:05.922Z,47.90
2019-02-17T21:58:39.346Z,44.03
2019-02-17T22:01:14.263Z,46.70
2019-02-17T22:03:51.287Z,46.93
2019-02-17T22:06:33.189Z,53.37
2019-02-17T22:09:04.411Z,63.30
2019-02-17T22:11:41.098Z,64.97
2019-02-17T22:14:21.701Z,68.10
2019-02-17T22:16:55.245Z,58.80
2019-02-17T22:22:27.127Z,56.40
2019-02-17T22:25:00.694Z,54.27
2019-02-17T22:27:34.189Z,56.90
2019-02-17T22:30:12.613Z,62.50
2019-02-17T22:32:47.833Z,65.17
2019-02-17T22:35:26.513Z,60.63
2019-02-17T22:38:00.067Z,59.13
2019-02-17T22:40:33.749Z,58.60
2019-02-17T22:43:09.041Z,57.77
2019-02-17T22:45:42.640Z,53.73
2019-02-17T22:48:16.409Z,51.57
2019-02-17T22:50:49.956Z,53.97
2019-02-17T22:53:26.298Z,54.57
2019-02-17T22:55:59.970Z,54.80
2019-02-17T22:58:33.702Z,60.77
2019-02-17T23:01:09.329Z,57.17
2019-02-17T23:03:44.533Z,57.13
2019-02-17T23:06:22.296Z,59.23
2019-02-17T23:09:02.638Z,62.17
2019-02-17T23:11:45.134Z,60.10
2019-02-17T23:14:19.390Z,57.10
2019-02-17T23:16:57.293Z,55.03
2019-02-17T23:19:40.688Z,53.07
2019-02-17T23:22:22.041Z,48.67
2019-02-17T23:25:04.540Z,48.17
2019-02-17T23:27:45.492Z,50.17
2019-02-17T23:30:19.774Z,50.77
2019-02-17T23:33:02.931Z,50.93
2019-02-17T23:35:36.482Z,53.27
2019-02-17T23:38:11.851Z,50.30
2019-02-17T23:40:47.733Z,52.83
2019-02-17T23:43:25.824Z,58.20
2019-02-17T23:45:59.444Z,55.67
2019-02-17T23:48:34.499Z,56.80
2019-02-17T23:51:07.976Z,52.90
2019-02-17T23:53:42.813Z,47.47
2019-02-17T23:56:24.601Z,48.13
2019-02-17T23:58:58.064Z,42.63
